< < Back
Terminal Aerodrome Forecast


Current Version              Previous Versions:   1  2  3  4  5  6  7  8  9  

Terminal Aerodrome Forecast

279
FTUS42 KTAE 011020 AAB
TAFTLH
TAF AMD
KTLH 011020Z 0110/0206 21005KT P6SM -SHRA SCT015 BKN060
      TEMPO 0114/0118 22015G25KT 3SM TSRA SCT008 BKN025CB
     FM012000 21005KT P6SM SCT025 BKN250=

Latest METAR

265
SAUS80 KWBC 011900 RRE
MTRTLH
METAR KTLH 011853Z 21006KT 10SM FEW020 BKN100 BKN200 28/23 A3001 RMK AO2
SLP162 T02830228 $


USA.gov is the U.S. government's official web portal to all federal, state and local government web resources and services.